Two Rivers, Wisconsin
Current Conditions -  °F | °C
As of 5:26 PM on Sunday 21 Dec 2014 (Local Time) from KMTW Reporting Station
Overcast Overcast  
Wind Chill: 29°   Ceiling: 1100
Heat Index: 37°   Visibility: 8mi
Dew Point: 34°   Wind: 15mph
Humidity: 87%   Direction: 190°S
Pressure: 30.04"   Gusts: NA
Location:  44.15°N, 87.57°W
Report Text: KMTW 212326Z AUTO 19013KT 8SM OVC011 03/01 A3004 RMK AO2
Loading
Personal Weather Stations






























Interactive Weather Map New forecast layout! Learn more

10-Day Weather Forecast

Advertisements
Track Severe Weather on mobile